createdAt,value
2023-08-29T00:01:56.524Z,9.50
2023-08-29T00:04:45.952Z,9.20
2023-08-29T00:07:35.298Z,9.70
2023-08-29T00:10:26.411Z,9.60
2023-08-29T00:13:15.691Z,9.90
2023-08-29T00:16:06.508Z,9.40
2023-08-29T00:18:55.855Z,9.70
2023-08-29T00:21:45.253Z,9.70
2023-08-29T00:24:34.647Z,9.87
2023-08-29T00:27:25.474Z,9.47
2023-08-29T00:30:15.953Z,9.40
2023-08-29T00:33:06.202Z,9.40
2023-08-29T00:35:55.684Z,9.60
2023-08-29T00:38:44.993Z,9.50
2023-08-29T00:41:34.394Z,9.70
2023-08-29T00:44:25.204Z,9.40
2023-08-29T00:47:14.651Z,9.33
2023-08-29T00:50:04.160Z,9.60
2023-08-29T00:52:58.247Z,9.60
2023-08-29T00:55:47.739Z,9.27
2023-08-29T00:58:37.306Z,9.40
2023-08-29T01:01:28.271Z,9.47
2023-08-29T01:04:20.881Z,9.93
2023-08-29T01:07:10.524Z,9.70
2023-08-29T01:09:59.828Z,9.63
2023-08-29T01:12:58.360Z,9.57
2023-08-29T01:15:52.965Z,10.03
2023-08-29T01:18:47.820Z,10.10
2023-08-29T01:21:48.120Z,9.90
2023-08-29T01:24:46.769Z,9.63
2023-08-29T01:27:38.788Z,9.80
2023-08-29T01:30:28.735Z,9.97
2023-08-29T01:33:18.815Z,9.93
2023-08-29T01:36:08.481Z,10.33
2023-08-29T01:38:57.911Z,10.60
2023-08-29T01:41:47.230Z,11.10
2023-08-29T01:44:37.900Z,10.67
2023-08-29T01:47:27.420Z,10.70
2023-08-29T01:50:21.181Z,10.60
2023-08-29T01:53:11.123Z,10.20
2023-08-29T01:56:02.539Z,10.83
2023-08-29T01:58:54.689Z,10.73
2023-08-29T02:01:45.498Z,10.90
2023-08-29T02:04:35.740Z,11.07
2023-08-29T02:07:25.223Z,11.33
2023-08-29T02:10:15.803Z,10.47
2023-08-29T02:13:06.208Z,10.87
2023-08-29T02:15:55.527Z,11.03
2023-08-29T02:18:46.303Z,10.80
2023-08-29T02:21:35.641Z,10.90
2023-08-29T02:24:25.169Z,10.60
2023-08-29T02:27:14.437Z,10.60
2023-08-29T02:30:05.664Z,11.00
2023-08-29T02:32:55.570Z,10.63
2023-08-29T02:35:47.023Z,10.60
2023-08-29T02:38:37.060Z,10.17
2023-08-29T02:41:26.563Z,10.17
2023-08-29T02:44:16.301Z,10.50
2023-08-29T02:47:06.318Z,11.03
2023-08-29T02:49:55.666Z,10.63
2023-08-29T02:52:46.384Z,11.10
2023-08-29T02:55:35.744Z,11.07
2023-08-29T02:58:25.355Z,11.37
2023-08-29T03:01:14.995Z,11.17
2023-08-29T03:04:05.177Z,10.77
2023-08-29T03:06:54.738Z,11.23
2023-08-29T03:09:45.468Z,11.27
2023-08-29T03:12:34.953Z,11.30
2023-08-29T03:15:24.504Z,11.33
2023-08-29T03:18:14.360Z,12.03
2023-08-29T03:21:07.987Z,12.20
2023-08-29T03:23:57.401Z,12.30
2023-08-29T03:26:49.314Z,13.00
2023-08-29T03:29:38.720Z,12.00
2023-08-29T03:32:28.162Z,11.97
2023-08-29T03:35:18.144Z,12.40
2023-08-29T03:38:07.986Z,12.27
2023-08-29T03:40:58.570Z,12.37
2023-08-29T03:43:49.388Z,12.60
2023-08-29T03:46:38.917Z,12.87
2023-08-29T03:49:28.282Z,12.30
2023-08-29T03:52:24.368Z,12.07
2023-08-29T03:55:15.043Z,12.10
2023-08-29T03:58:04.828Z,12.20
2023-08-29T04:00:57.018Z,12.80
2023-08-29T04:03:46.525Z,11.50
2023-08-29T04:06:36.407Z,11.60
2023-08-29T04:09:25.904Z,11.27
2023-08-29T04:12:15.281Z,11.63
2023-08-29T04:15:05.766Z,11.30
2023-08-29T04:17:56.758Z,11.07
2023-08-29T04:20:46.201Z,11.07
2023-08-29T04:23:35.682Z,11.03
2023-08-29T04:26:25.176Z,11.30
2023-08-29T04:29:14.529Z,11.43
2023-08-29T04:32:03.844Z,11.30
2023-08-29T04:34:54.771Z,11.37
2023-08-29T04:37:48.073Z,11.43
2023-08-29T04:40:38.432Z,11.13
2023-08-29T04:43:29.639Z,10.50
2023-08-29T04:46:18.997Z,11.40
2023-08-29T04:49:08.425Z,11.80
2023-08-29T04:52:00.468Z,11.80
2023-08-29T04:54:49.848Z,12.40
2023-08-29T04:57:39.541Z,12.63
2023-08-29T05:00:29.922Z,12.50
2023-08-29T05:03:19.635Z,11.53
2023-08-29T05:06:08.960Z,11.30
2023-08-29T05:08:59.747Z,11.13
2023-08-29T05:11:49.057Z,10.70
2023-08-29T05:14:39.147Z,11.00
2023-08-29T05:17:28.679Z,10.57
2023-08-29T05:20:18.291Z,10.50
2023-08-29T05:23:07.669Z,10.50
2023-08-29T05:25:58.353Z,10.70
2023-08-29T05:28:47.714Z,10.77
2023-08-29T05:31:37.019Z,10.63
2023-08-29T05:34:26.417Z,10.53
2023-08-29T05:37:15.752Z,11.40
2023-08-29T05:40:07.634Z,10.90
2023-08-29T05:42:58.415Z,10.80
2023-08-29T05:45:47.978Z,10.37
2023-08-29T05:48:37.315Z,10.43
2023-08-29T05:51:26.762Z,10.43
2023-08-29T05:54:16.348Z,10.40
2023-08-29T05:57:06.413Z,10.10
2023-08-29T05:59:57.494Z,10.27
2023-08-29T06:02:47.164Z,10.03
2023-08-29T06:05:37.801Z,10.27
2023-08-29T06:08:27.621Z,9.87
2023-08-29T06:11:17.223Z,9.60
2023-08-29T06:14:06.835Z,9.57
2023-08-29T06:16:58.147Z,9.60
2023-08-29T06:19:47.700Z,9.30
2023-08-29T06:22:37.337Z,9.27
2023-08-29T06:25:26.740Z,9.60
2023-08-29T06:28:16.096Z,9.20
2023-08-29T06:31:09.606Z,9.50
2023-08-29T06:34:00.880Z,9.33
2023-08-29T06:36:50.927Z,9.20
2023-08-29T06:39:40.216Z,9.27
2023-08-29T06:42:29.538Z,9.10
2023-08-29T06:45:19.290Z,8.90
2023-08-29T06:48:09.139Z,9.20
2023-08-29T06:51:00.103Z,9.20
2023-08-29T06:53:49.470Z,8.80
2023-08-29T06:56:38.884Z,9.00
2023-08-29T06:59:31.133Z,8.93
2023-08-29T07:02:20.494Z,9.00
2023-08-29T07:05:10.168Z,8.90
2023-08-29T07:08:01.113Z,8.83
2023-08-29T07:10:50.765Z,8.93
2023-08-29T07:13:40.076Z,9.10
2023-08-29T07:16:32.043Z,9.00
2023-08-29T07:19:21.480Z,9.00
2023-08-29T07:22:23.648Z,9.00
2023-08-29T07:25:16.112Z,8.80
2023-08-29T07:28:06.302Z,9.00
2023-08-29T07:30:55.982Z,8.90
2023-08-29T07:33:45.427Z,8.90
2023-08-29T07:36:34.836Z,9.00
2023-08-29T07:39:25.606Z,8.80
2023-08-29T07:42:18.016Z,9.17
2023-08-29T07:45:09.724Z,8.90
2023-08-29T07:47:59.135Z,8.87
2023-08-29T07:50:48.637Z,8.80
2023-08-29T07:53:38.053Z,9.00
2023-08-29T07:56:27.416Z,9.03
2023-08-29T07:59:18.119Z,8.90
2023-08-29T08:02:08.020Z,9.20
2023-08-29T08:04:57.497Z,9.23
2023-08-29T08:07:47.759Z,9.50
2023-08-29T08:10:37.220Z,9.50
2023-08-29T08:13:26.634Z,9.47
2023-08-29T08:16:17.677Z,8.90
2023-08-29T08:19:07.484Z,9.10
2023-08-29T08:21:56.808Z,9.20
2023-08-29T08:24:46.444Z,9.40
2023-08-29T08:27:37.422Z,9.23
2023-08-29T08:30:27.932Z,9.30
2023-08-29T08:33:18.744Z,9.10
2023-08-29T08:36:08.206Z,9.27
2023-08-29T08:38:57.868Z,9.20
2023-08-29T08:41:47.287Z,9.20
2023-08-29T08:44:37.055Z,9.40
2023-08-29T08:47:26.910Z,9.20
2023-08-29T08:50:17.839Z,9.13
2023-08-29T08:53:08.120Z,9.47
2023-08-29T08:55:57.918Z,9.30
2023-08-29T08:58:47.620Z,9.23
2023-08-29T09:01:37.077Z,9.30
2023-08-29T09:04:27.372Z,9.00
2023-08-29T09:07:18.820Z,8.97
2023-08-29T09:10:11.295Z,8.90
2023-08-29T09:13:00.677Z,8.90
2023-08-29T09:15:50.215Z,8.70
2023-08-29T09:18:39.830Z,8.77
2023-08-29T09:21:29.263Z,8.73
2023-08-29T09:24:33.908Z,8.80
2023-08-29T09:27:23.307Z,8.80
2023-08-29T09:30:14.383Z,9.13
2023-08-29T09:33:10.232Z,9.00
2023-08-29T09:36:00.168Z,8.80
2023-08-29T09:38:50.440Z,8.80
2023-08-29T09:41:42.175Z,8.70
2023-08-29T09:44:36.686Z,8.60
2023-08-29T09:47:26.380Z,8.80
2023-08-29T09:50:15.936Z,8.90
2023-08-29T09:53:06.283Z,9.00
2023-08-29T09:56:06.497Z,9.20
2023-08-29T09:59:00.446Z,8.70
2023-08-29T10:01:50.803Z,8.90
2023-08-29T10:04:45.012Z,8.90
2023-08-29T10:07:42.468Z,8.80
2023-08-29T10:10:31.945Z,8.80
2023-08-29T10:13:21.613Z,8.70
2023-08-29T10:16:14.281Z,8.90
2023-08-29T10:19:03.957Z,8.97
2023-08-29T10:21:54.870Z,8.80
2023-08-29T10:24:45.256Z,8.60
2023-08-29T10:27:36.347Z,8.60
2023-08-29T10:30:27.979Z,8.70
2023-08-29T10:33:20.317Z,8.70
2023-08-29T10:36:11.329Z,8.77
2023-08-29T10:39:01.842Z,8.90
2023-08-29T10:41:55.598Z,8.67
2023-08-29T10:44:45.904Z,8.70
2023-08-29T10:47:48.323Z,8.60
2023-08-29T10:50:39.794Z,8.87
2023-08-29T10:53:38.373Z,8.80
2023-08-29T10:56:41.364Z,8.60
2023-08-29T10:59:33.975Z,8.90
2023-08-29T11:02:24.781Z,8.80
2023-08-29T11:05:16.445Z,8.70
2023-08-29T11:08:23.440Z,8.70
2023-08-29T11:11:21.203Z,8.70
2023-08-29T11:14:10.768Z,8.80
2023-08-29T11:17:13.483Z,8.70
2023-08-29T11:20:03.500Z,8.93
2023-08-29T11:22:55.030Z,8.80
2023-08-29T11:25:45.860Z,8.60
2023-08-29T11:28:35.842Z,8.90
2023-08-29T11:31:25.328Z,8.80
2023-08-29T11:34:19.950Z,8.80
2023-08-29T11:37:12.010Z,8.90
2023-08-29T11:40:07.547Z,8.80
2023-08-29T11:43:16.584Z,8.60
2023-08-29T11:46:11.296Z,8.70
2023-08-29T11:49:00.818Z,9.07
2023-08-29T11:51:50.250Z,8.70
2023-08-29T11:54:48.037Z,8.87
2023-08-29T11:57:38.463Z,8.87
2023-08-29T12:00:29.286Z,8.80
2023-08-29T12:03:23.032Z,8.60
2023-08-29T12:06:14.204Z,8.70
2023-08-29T12:09:04.794Z,8.80
2023-08-29T12:11:57.380Z,8.73
2023-08-29T12:14:53.130Z,8.43
2023-08-29T12:17:45.541Z,8.60
2023-08-29T12:20:37.807Z,8.50
2023-08-29T12:23:28.618Z,8.50
2023-08-29T12:26:18.510Z,8.60
2023-08-29T12:29:08.177Z,8.40
2023-08-29T12:31:57.528Z,8.60
2023-08-29T12:34:48.280Z,8.73
2023-08-29T12:37:37.750Z,8.87
2023-08-29T12:40:27.402Z,8.70
2023-08-29T12:43:18.247Z,8.70
2023-08-29T12:46:07.712Z,8.70
2023-08-29T12:48:57.094Z,8.60
2023-08-29T12:51:47.851Z,8.83
2023-08-29T12:54:37.521Z,16.00
2023-08-29T12:57:26.907Z,11.60
2023-08-29T13:00:19.188Z,10.43
2023-08-29T13:03:08.637Z,9.43
2023-08-29T13:05:58.091Z,9.03
2023-08-29T13:08:48.875Z,8.80
2023-08-29T13:11:38.261Z,9.10
2023-08-29T13:14:37.913Z,8.70
2023-08-29T13:17:28.549Z,8.70
2023-08-29T13:20:18.903Z,8.70
2023-08-29T13:23:08.334Z,8.60
2023-08-29T13:25:59.280Z,8.40
2023-08-29T13:28:50.137Z,8.60
2023-08-29T13:31:39.702Z,8.50
2023-08-29T13:34:29.149Z,8.40
2023-08-29T13:37:18.544Z,8.40
2023-08-29T13:40:10.372Z,8.30
2023-08-29T13:43:01.265Z,8.60
2023-08-29T13:45:50.694Z,8.60
2023-08-29T13:48:40.006Z,8.40
2023-08-29T13:51:29.464Z,8.60
2023-08-29T13:54:18.772Z,8.50
2023-08-29T13:57:08.088Z,8.63
2023-08-29T13:59:58.812Z,8.50
2023-08-29T14:02:49.006Z,8.50
2023-08-29T14:05:38.411Z,8.47
2023-08-29T14:08:27.745Z,8.60
2023-08-29T14:11:17.191Z,8.50
2023-08-29T14:14:06.677Z,8.40
2023-08-29T14:16:57.417Z,8.40
2023-08-29T14:19:46.748Z,8.50
2023-08-29T14:22:36.037Z,8.57
2023-08-29T14:25:25.403Z,8.50
2023-08-29T14:28:14.699Z,8.63
2023-08-29T14:31:04.877Z,8.60
2023-08-29T14:33:55.593Z,8.70
2023-08-29T14:36:44.877Z,8.80
2023-08-29T14:39:34.404Z,8.60
2023-08-29T14:42:23.760Z,9.13
2023-08-29T14:45:13.028Z,8.30
2023-08-29T14:48:02.454Z,8.63
2023-08-29T14:50:53.182Z,8.60
2023-08-29T14:53:42.541Z,8.60
2023-08-29T14:56:32.288Z,8.70
2023-08-29T14:59:21.804Z,8.80
2023-08-29T15:02:11.307Z,8.60
2023-08-29T15:05:00.670Z,8.70
2023-08-29T15:07:51.369Z,8.97
2023-08-29T15:10:40.745Z,8.57
2023-08-29T15:13:30.183Z,8.87
2023-08-29T15:16:19.830Z,8.70
2023-08-29T15:19:09.210Z,8.80
2023-08-29T15:21:58.684Z,8.80
2023-08-29T15:24:49.372Z,8.73
2023-08-29T15:27:38.814Z,8.73
2023-08-29T15:30:28.132Z,9.00
2023-08-29T15:33:17.461Z,8.90
2023-08-29T15:36:07.225Z,8.90
2023-08-29T15:38:56.499Z,8.90
2023-08-29T15:41:47.185Z,9.27
2023-08-29T15:44:37.589Z,9.07
2023-08-29T15:47:26.960Z,9.20
2023-08-29T15:50:16.881Z,9.03
2023-08-29T15:53:06.238Z,9.00
2023-08-29T15:56:03.310Z,9.00
2023-08-29T15:58:54.097Z,9.00
2023-08-29T16:01:43.414Z,8.70
2023-08-29T16:04:33.053Z,8.90
2023-08-29T16:07:22.551Z,9.10
2023-08-29T16:10:15.319Z,9.10
2023-08-29T16:13:05.110Z,9.00
2023-08-29T16:15:58.224Z,9.10
2023-08-29T16:18:47.672Z,9.00
2023-08-29T16:21:37.009Z,9.13
2023-08-29T16:24:26.375Z,9.03
2023-08-29T16:27:16.976Z,9.07
2023-08-29T16:30:08.650Z,9.10
2023-08-29T16:32:59.382Z,9.10
2023-08-29T16:35:49.319Z,9.23
2023-08-29T16:38:39.259Z,9.50
2023-08-29T16:41:28.574Z,8.80
2023-08-29T16:44:18.780Z,9.37
2023-08-29T16:47:08.162Z,9.10
2023-08-29T16:49:58.884Z,9.30
2023-08-29T16:52:48.176Z,9.60
2023-08-29T16:55:37.479Z,9.20
2023-08-29T16:58:26.915Z,9.10
2023-08-29T17:01:16.344Z,9.30
2023-08-29T17:04:07.097Z,9.20
2023-08-29T17:06:57.855Z,9.07
2023-08-29T17:09:47.917Z,9.03
2023-08-29T17:12:37.251Z,8.80
2023-08-29T17:15:26.648Z,8.80
2023-08-29T17:18:16.826Z,9.00
2023-08-29T17:21:06.510Z,9.00
2023-08-29T17:23:57.219Z,9.10
2023-08-29T17:26:46.584Z,9.00
2023-08-29T17:29:36.133Z,9.03
2023-08-29T17:32:25.565Z,9.10
2023-08-29T17:35:15.249Z,8.87
2023-08-29T17:38:05.365Z,9.07
2023-08-29T17:41:00.044Z,9.50
2023-08-29T17:43:49.343Z,9.10
2023-08-29T17:46:38.706Z,9.07
2023-08-29T17:49:28.001Z,8.70
2023-08-29T17:52:17.287Z,9.17
2023-08-29T17:55:08.865Z,8.97
2023-08-29T17:57:59.562Z,8.87
2023-08-29T18:00:50.078Z,8.70
2023-08-29T18:03:39.542Z,8.93
2023-08-29T18:06:28.937Z,9.10
2023-08-29T18:09:19.357Z,8.87
2023-08-29T18:12:09.347Z,8.90
2023-08-29T18:15:00.417Z,8.80
2023-08-29T18:17:49.899Z,9.03
2023-08-29T18:20:39.266Z,9.03
2023-08-29T18:23:28.816Z,9.00
2023-08-29T18:26:18.151Z,8.90
2023-08-29T18:29:07.562Z,9.07
2023-08-29T18:31:58.319Z,9.13
2023-08-29T18:34:47.677Z,9.10
2023-08-29T18:37:36.995Z,9.13
2023-08-29T18:40:26.307Z,8.83
2023-08-29T18:43:16.112Z,9.00
2023-08-29T18:46:05.574Z,9.10
2023-08-29T18:48:57.103Z,9.10
2023-08-29T18:51:46.431Z,9.17
2023-08-29T18:54:36.587Z,9.27
2023-08-29T18:57:27.287Z,9.50
2023-08-29T19:00:19.319Z,9.17
2023-08-29T19:03:12.019Z,9.40
2023-08-29T19:06:02.855Z,9.53
2023-08-29T19:08:53.493Z,9.60
2023-08-29T19:11:43.266Z,9.30
2023-08-29T19:14:32.563Z,9.43
2023-08-29T19:17:21.982Z,9.40
2023-08-29T19:20:12.852Z,9.70
2023-08-29T19:23:04.020Z,9.60
2023-08-29T19:25:53.347Z,9.67
2023-08-29T19:28:42.684Z,9.77
2023-08-29T19:31:32.162Z,9.67
2023-08-29T19:34:21.516Z,9.90
2023-08-29T19:37:10.856Z,9.87
2023-08-29T19:40:02.036Z,10.10
2023-08-29T19:42:51.358Z,9.80
2023-08-29T19:45:40.734Z,10.03
2023-08-29T19:48:30.721Z,9.77
2023-08-29T19:51:20.369Z,9.70
2023-08-29T19:54:09.759Z,9.57
2023-08-29T19:57:00.546Z,9.40
2023-08-29T19:59:50.806Z,9.60
2023-08-29T20:02:41.124Z,9.60
2023-08-29T20:05:30.637Z,9.60
2023-08-29T20:08:20.011Z,9.50
2023-08-29T20:11:09.495Z,9.50
2023-08-29T20:14:00.191Z,9.30
2023-08-29T20:16:49.576Z,9.50
2023-08-29T20:19:39.211Z,9.27
2023-08-29T20:22:28.592Z,9.27
2023-08-29T20:25:18.130Z,9.50
2023-08-29T20:28:08.373Z,9.20
2023-08-29T20:30:59.358Z,9.60
2023-08-29T20:33:48.761Z,9.20
2023-08-29T20:36:38.261Z,9.20
2023-08-29T20:39:27.707Z,9.23
2023-08-29T20:42:17.158Z,9.50
2023-08-29T20:45:08.053Z,9.00
2023-08-29T20:47:58.934Z,9.43
2023-08-29T20:50:51.039Z,9.00
2023-08-29T20:53:40.356Z,9.37
2023-08-29T20:56:29.694Z,9.10
2023-08-29T20:59:19.113Z,8.90
2023-08-29T21:02:10.192Z,8.90
2023-08-29T21:05:00.976Z,9.00
2023-08-29T21:07:50.300Z,8.70
2023-08-29T21:10:39.776Z,8.80
2023-08-29T21:13:29.192Z,9.10
2023-08-29T21:16:18.585Z,8.70
2023-08-29T21:19:07.973Z,8.80
2023-08-29T21:21:58.920Z,8.90
2023-08-29T21:24:48.253Z,8.70
2023-08-29T21:27:37.518Z,8.57
2023-08-29T21:30:26.941Z,8.83
2023-08-29T21:33:16.588Z,8.70
2023-08-29T21:36:06.693Z,8.80
2023-08-29T21:38:57.475Z,9.00
2023-08-29T21:41:47.523Z,8.63
2023-08-29T21:44:36.781Z,8.73
2023-08-29T21:47:26.111Z,8.70
2023-08-29T21:50:15.668Z,9.00
2023-08-29T21:53:06.098Z,8.77
2023-08-29T21:55:56.785Z,8.70
2023-08-29T21:58:46.123Z,8.80
2023-08-29T22:01:35.562Z,8.83
2023-08-29T22:04:24.980Z,8.83
2023-08-29T22:07:14.296Z,8.90
2023-08-29T22:10:03.657Z,8.90
2023-08-29T22:12:54.880Z,8.90
2023-08-29T22:15:44.261Z,9.00
2023-08-29T22:18:33.665Z,8.90
2023-08-29T22:21:22.999Z,9.10
2023-08-29T22:24:12.309Z,9.10
2023-08-29T22:27:01.618Z,9.00
2023-08-29T22:29:52.291Z,8.93
2023-08-29T22:32:41.669Z,8.90
2023-08-29T22:35:31.079Z,9.13
2023-08-29T22:38:20.416Z,8.90
2023-08-29T22:41:21.354Z,8.90
2023-08-29T22:44:14.484Z,8.90
2023-08-29T22:47:05.604Z,9.13
2023-08-29T22:49:54.907Z,8.77
2023-08-29T22:52:44.703Z,8.93
2023-08-29T22:55:37.793Z,9.00
2023-08-29T22:58:27.094Z,9.33
2023-08-29T23:01:16.622Z,9.30
2023-08-29T23:04:08.080Z,9.00
2023-08-29T23:07:04.624Z,8.80
2023-08-29T23:09:54.036Z,9.30
2023-08-29T23:12:44.353Z,9.23
2023-08-29T23:15:35.104Z,9.17
2023-08-29T23:18:24.482Z,9.03
2023-08-29T23:21:15.198Z,9.43
2023-08-29T23:24:05.151Z,8.90
2023-08-29T23:26:54.475Z,8.97
2023-08-29T23:29:43.869Z,9.17
2023-08-29T23:32:33.860Z,9.07
2023-08-29T23:35:23.183Z,9.17
2023-08-29T23:38:13.990Z,9.20
2023-08-29T23:41:05.430Z,8.80
2023-08-29T23:43:55.016Z,9.20
2023-08-29T23:46:44.437Z,8.87
2023-08-29T23:49:33.848Z,9.27
2023-08-29T23:52:23.109Z,9.10
2023-08-29T23:55:13.826Z,9.20
2023-08-29T23:58:03.146Z,8.97
